sensor_id;sensor_type;location;lat;lon;timestamp;pressure;altitude;pressure_sealevel;temperature;humidity
42169;BME280;27838;43.858;25.974;2023-05-02T00:01:16;101597.59;;;17.83;35.75
42169;BME280;27838;43.858;25.974;2023-05-02T00:03:43;101600.22;;;17.85;35.50
42169;BME280;27838;43.858;25.974;2023-05-02T00:06:09;101606.34;;;17.85;35.48
42169;BME280;27838;43.858;25.974;2023-05-02T00:08:36;101603.75;;;17.82;35.71
42169;BME280;27838;43.858;25.974;2023-05-02T00:11:02;101600.28;;;17.80;35.28
42169;BME280;27838;43.858;25.974;2023-05-02T00:13:29;101609.94;;;17.86;35.32
42169;BME280;27838;43.858;25.974;2023-05-02T00:15:56;101610.78;;;17.86;35.57
42169;BME280;27838;43.858;25.974;2023-05-02T00:18:22;101606.38;;;17.84;35.66
42169;BME280;27838;43.858;25.974;2023-05-02T00:20:49;101610.84;;;17.80;35.60
42169;BME280;27838;43.858;25.974;2023-05-02T00:23:15;101615.31;;;17.75;35.82
42169;BME280;27838;43.858;25.974;2023-05-02T00:25:45;101599.63;;;17.67;35.85
42169;BME280;27838;43.858;25.974;2023-05-02T00:28:11;101607.47;;;17.72;35.88
42169;BME280;27838;43.858;25.974;2023-05-02T00:30:45;101601.41;;;17.65;35.97
42169;BME280;27838;43.858;25.974;2023-05-02T00:33:12;101616.28;;;17.69;35.95
42169;BME280;27838;43.858;25.974;2023-05-02T00:35:40;101619.91;;;17.62;36.13
42169;BME280;27838;43.858;25.974;2023-05-02T00:38:06;101612.94;;;17.60;36.21
42169;BME280;27838;43.858;25.974;2023-05-02T00:40:43;101619.97;;;17.58;36.11
42169;BME280;27838;43.858;25.974;2023-05-02T00:43:11;101610.41;;;17.52;36.21
42169;BME280;27838;43.858;25.974;2023-05-02T00:45:38;101612.16;;;17.53;36.00
42169;BME280;27838;43.858;25.974;2023-05-02T00:48:06;101611.31;;;17.49;36.09
42169;BME280;27838;43.858;25.974;2023-05-02T00:50:36;101619.25;;;17.48;36.39
42169;BME280;27838;43.858;25.974;2023-05-02T00:53:03;101612.31;;;17.42;36.42
42169;BME280;27838;43.858;25.974;2023-05-02T00:55:31;101621.97;;;17.40;36.54
42169;BME280;27838;43.858;25.974;2023-05-02T00:58:00;101618.53;;;17.35;36.58
42169;BME280;27838;43.858;25.974;2023-05-02T01:00:39;101618.50;;;17.38;36.15
42169;BME280;27838;43.858;25.974;2023-05-02T01:03:52;101622.94;;;17.34;36.51
42169;BME280;27838;43.858;25.974;2023-05-02T01:12:09;101618.63;;;17.29;36.74
42169;BME280;27838;43.858;25.974;2023-05-02T01:14:44;101623.03;;;17.28;36.42
42169;BME280;27838;43.858;25.974;2023-05-02T01:17:14;101623.03;;;17.28;36.24
42169;BME280;27838;43.858;25.974;2023-05-02T01:19:54;101622.22;;;17.25;36.69
42169;BME280;27838;43.858;25.974;2023-05-02T01:22:23;101623.97;;;17.23;36.75
42169;BME280;27838;43.858;25.974;2023-05-02T01:27:39;101620.69;;;17.05;37.30
42169;BME280;27838;43.858;25.974;2023-05-02T01:30:10;101620.69;;;17.05;36.95
42169;BME280;27838;43.858;25.974;2023-05-02T01:32:39;101614.56;;;17.05;37.06
42169;BME280;27838;43.858;25.974;2023-05-02T01:35:08;101618.94;;;17.06;36.96
42169;BME280;27838;43.858;25.974;2023-05-02T01:37:37;101612.03;;;16.97;37.02
42169;BME280;27838;43.858;25.974;2023-05-02T01:40:07;101611.25;;;16.87;37.21
42169;BME280;27838;43.858;25.974;2023-05-02T01:42:36;101620.78;;;16.97;37.23
42169;BME280;27838;43.858;25.974;2023-05-02T01:45:05;101616.38;;;16.99;36.91
42169;BME280;27838;43.858;25.974;2023-05-02T01:47:35;101628.72;;;16.96;37.33
42169;BME280;27838;43.858;25.974;2023-05-02T01:50:06;101627.97;;;16.85;37.54
42169;BME280;27838;43.858;25.974;2023-05-02T01:52:35;101634.19;;;16.77;38.00
42169;BME280;27838;43.858;25.974;2023-05-02T01:55:04;101635.06;;;16.76;37.73
42169;BME280;27838;43.858;25.974;2023-05-02T01:57:31;101622.81;;;16.72;37.33
42169;BME280;27838;43.858;25.974;2023-05-02T01:59:58;101627.13;;;16.78;37.38
42169;BME280;27838;43.858;25.974;2023-05-02T02:02:26;101619.22;;;16.81;36.86
42169;BME280;27838;43.858;25.974;2023-05-02T02:04:55;101626.19;;;16.87;36.77
42169;BME280;27838;43.858;25.974;2023-05-02T02:07:22;101624.44;;;16.86;36.79
42169;BME280;27838;43.858;25.974;2023-05-02T02:09:49;101629.69;;;16.87;36.91
42169;BME280;27838;43.858;25.974;2023-05-02T02:12:27;101629.69;;;16.86;37.25
42169;BME280;27838;43.858;25.974;2023-05-02T02:15:09;101628.00;;;16.78;37.50
42169;BME280;27838;43.858;25.974;2023-05-02T02:17:48;101635.88;;;16.80;37.00
42169;BME280;27838;43.858;25.974;2023-05-02T02:20:15;101633.25;;;16.82;37.11
42169;BME280;27838;43.858;25.974;2023-05-02T02:22:43;101627.13;;;16.81;37.46
42169;BME280;27838;43.858;25.974;2023-05-02T02:25:14;101631.53;;;16.77;37.22
42169;BME280;27838;43.858;25.974;2023-05-02T02:27:41;101626.31;;;16.74;37.38
42169;BME280;27838;43.858;25.974;2023-05-02T02:30:08;101635.94;;;16.74;37.42
42169;BME280;27838;43.858;25.974;2023-05-02T02:32:35;101637.72;;;16.70;37.22
42169;BME280;27838;43.858;25.974;2023-05-02T02:35:02;101633.41;;;16.66;37.58
42169;BME280;27838;43.858;25.974;2023-05-02T02:37:34;101640.47;;;16.63;37.45
42169;BME280;27838;43.858;25.974;2023-05-02T02:40:11;101638.81;;;16.51;38.41
42169;BME280;27838;43.858;25.974;2023-05-02T02:48:34;101648.59;;;16.39;38.71
42169;BME280;27838;43.858;25.974;2023-05-02T02:51:12;101646.06;;;16.27;38.85
42169;BME280;27838;43.858;25.974;2023-05-02T02:54:17;101647.75;;;16.34;39.71
42169;BME280;27838;43.858;25.974;2023-05-02T02:56:39;101647.69;;;16.39;38.74
42169;BME280;27838;43.858;25.974;2023-05-02T02:59:12;101643.34;;;16.39;38.32
42169;BME280;27838;43.858;25.974;2023-05-02T03:01:44;101645.97;;;16.39;38.72
42169;BME280;27838;43.858;25.974;2023-05-02T03:04:12;101642.50;;;16.34;38.61
42169;BME280;27838;43.858;25.974;2023-05-02T03:06:41;101653.06;;;16.30;39.32
42169;BME280;27838;43.858;25.974;2023-05-02T03:09:14;101653.13;;;16.22;38.97
42169;BME280;27838;43.858;25.974;2023-05-02T03:11:42;101654.91;;;16.20;39.12
42169;BME280;27838;43.858;25.974;2023-05-02T03:14:10;101660.19;;;16.17;39.23
42169;BME280;27838;43.858;25.974;2023-05-02T03:16:40;101656.72;;;16.13;39.17
42169;BME280;27838;43.858;25.974;2023-05-02T03:19:07;101659.34;;;16.15;39.02
42169;BME280;27838;43.858;25.974;2023-05-02T03:21:34;101664.53;;;16.18;38.69
42169;BME280;27838;43.858;25.974;2023-05-02T03:24:01;101661.91;;;16.21;38.77
42169;BME280;27838;43.858;25.974;2023-05-02T03:26:29;101661.91;;;16.21;38.21
42169;BME280;27838;43.858;25.974;2023-05-02T03:28:56;101662.81;;;16.17;38.90
42169;BME280;27838;43.858;25.974;2023-05-02T03:31:22;101668.09;;;16.17;38.22
42169;BME280;27838;43.858;25.974;2023-05-02T03:33:49;101678.59;;;16.17;38.28
42169;BME280;27838;43.858;25.974;2023-05-02T03:36:15;101674.19;;;16.20;38.23
42169;BME280;27838;43.858;25.974;2023-05-02T03:38:42;101677.66;;;16.24;38.53
42169;BME280;27838;43.858;25.974;2023-05-02T03:41:08;101682.84;;;16.30;38.52
42169;BME280;27838;43.858;25.974;2023-05-02T03:43:35;101691.59;;;16.35;38.10
42169;BME280;27838;43.858;25.974;2023-05-02T03:46:06;101687.22;;;16.37;38.26
42169;BME280;27838;43.858;25.974;2023-05-02T03:48:33;101692.50;;;16.34;38.35
42169;BME280;27838;43.858;25.974;2023-05-02T03:51:01;101698.59;;;16.39;38.47
42169;BME280;27838;43.858;25.974;2023-05-02T03:53:29;101702.94;;;16.39;38.60
42169;BME280;27838;43.858;25.974;2023-05-02T03:55:57;101700.28;;;16.43;38.80
42169;BME280;27838;43.858;25.974;2023-05-02T03:58:23;101705.50;;;16.50;39.28
42169;BME280;27838;43.858;25.974;2023-05-02T04:00:51;101708.97;;;16.55;39.78
42169;BME280;27838;43.858;25.974;2023-05-02T04:03:18;101710.69;;;16.59;40.52
42169;BME280;27838;43.858;25.974;2023-05-02T04:05:45;101706.25;;;16.63;40.12
42169;BME280;27838;43.858;25.974;2023-05-02T04:08:11;101699.34;;;16.49;40.70
42169;BME280;27838;43.858;25.974;2023-05-02T04:10:38;101703.81;;;16.42;41.54
42169;BME280;27838;43.858;25.974;2023-05-02T04:13:05;101709.97;;;16.38;42.24
42169;BME280;27838;43.858;25.974;2023-05-02T04:15:32;101717.09;;;16.26;42.86
42169;BME280;27838;43.858;25.974;2023-05-02T04:17:58;101718.91;;;16.19;43.15
42169;BME280;27838;43.858;25.974;2023-05-02T04:20:25;101708.41;;;16.16;43.44
42169;BME280;27838;43.858;25.974;2023-05-02T04:22:51;101714.50;;;16.21;43.53
42169;BME280;27838;43.858;25.974;2023-05-02T04:25:18;101704.00;;;16.18;42.71
42169;BME280;27838;43.858;25.974;2023-05-02T04:27:45;101721.53;;;16.20;43.01
42169;BME280;27838;43.858;25.974;2023-05-02T04:30:11;101714.53;;;16.18;43.46
42169;BME280;27838;43.858;25.974;2023-05-02T04:32:38;101706.66;;;16.16;43.55
42169;BME280;27838;43.858;25.974;2023-05-02T04:35:05;101722.38;;;16.24;43.58
42169;BME280;27838;43.858;25.974;2023-05-02T04:37:32;101721.47;;;16.27;43.40
42169;BME280;27838;43.858;25.974;2023-05-02T04:39:58;101710.09;;;16.21;43.46
42169;BME280;27838;43.858;25.974;2023-05-02T04:42:25;101728.41;;;16.35;42.61
42169;BME280;27838;43.858;25.974;2023-05-02T04:44:51;101723.13;;;16.41;42.68
42169;BME280;27838;43.858;25.974;2023-05-02T04:47:18;101724.81;;;16.50;42.26
42169;BME280;27838;43.858;25.974;2023-05-02T04:49:44;101729.16;;;16.53;42.14
42169;BME280;27838;43.858;25.974;2023-05-02T04:52:11;101722.19;;;16.47;42.08
42169;BME280;27838;43.858;25.974;2023-05-02T04:54:38;101722.91;;;16.63;41.73
42169;BME280;27838;43.858;25.974;2023-05-02T04:57:05;101736.88;;;16.74;41.58
42169;BME280;27838;43.858;25.974;2023-05-02T04:59:32;101733.28;;;16.82;41.67
42169;BME280;27838;43.858;25.974;2023-05-02T05:01:59;101738.47;;;16.91;41.42
42169;BME280;27838;43.858;25.974;2023-05-02T05:04:26;101727.94;;;16.94;40.82
42169;BME280;27838;43.858;25.974;2023-05-02T05:06:52;101738.34;;;17.03;40.91
42169;BME280;27838;43.858;25.974;2023-05-02T05:09:19;101734.75;;;17.12;40.88
42169;BME280;27838;43.858;25.974;2023-05-02T05:11:46;101735.50;;;17.25;40.82
42169;BME280;27838;43.858;25.974;2023-05-02T05:14:12;101730.16;;;17.29;40.98
42169;BME280;27838;43.858;25.974;2023-05-02T05:16:39;101734.38;;;17.46;40.52
42169;BME280;27838;43.858;25.974;2023-05-02T05:19:05;101743.00;;;17.57;40.63
42169;BME280;27838;43.858;25.974;2023-05-02T05:21:32;101727.13;;;17.62;40.26
42169;BME280;27838;43.858;25.974;2023-05-02T05:23:59;101733.88;;;17.81;40.17
42169;BME280;27838;43.858;25.974;2023-05-02T05:26:26;101735.50;;;17.95;40.17
42169;BME280;27838;43.858;25.974;2023-05-02T05:28:52;101727.47;;;18.01;39.09
42169;BME280;27838;43.858;25.974;2023-05-02T06:01:35;101757.75;;;18.87;37.25
42169;BME280;27838;43.858;25.974;2023-05-02T06:04:02;101758.50;;;18.95;37.21
42169;BME280;27838;43.858;25.974;2023-05-02T06:06:30;101746.22;;;18.94;37.59
42169;BME280;27838;43.858;25.974;2023-05-02T06:08:57;101754.97;;;18.96;37.78
42169;BME280;27838;43.858;25.974;2023-05-02T06:11:23;101758.31;;;19.04;37.58
42169;BME280;27838;43.858;25.974;2023-05-02T06:13:53;101754.69;;;19.12;37.10
42169;BME280;27838;43.858;25.974;2023-05-02T06:16:19;101760.69;;;19.18;37.11
42169;BME280;27838;43.858;25.974;2023-05-02T06:18:46;101758.72;;;19.30;36.98
42169;BME280;27838;43.858;25.974;2023-05-02T06:21:13;101753.38;;;19.33;37.45
42169;BME280;27838;43.858;25.974;2023-05-02T06:23:39;101755.00;;;19.40;37.69
42169;BME280;27838;43.858;25.974;2023-05-02T06:26:06;101746.00;;;19.49;37.02
42169;BME280;27838;43.858;25.974;2023-05-02T06:28:34;101747.63;;;19.56;37.02
42169;BME280;27838;43.858;25.974;2023-05-02T06:31:04;101746.38;;;19.72;36.88
42169;BME280;27838;43.858;25.974;2023-05-02T06:33:32;101743.47;;;19.85;36.44
42169;BME280;27838;43.858;25.974;2023-05-02T06:35:59;101733.78;;;19.85;36.51
42169;BME280;27838;43.858;25.974;2023-05-02T06:38:25;101734.34;;;19.99;36.50
42169;BME280;27838;43.858;25.974;2023-05-02T06:40:52;101735.88;;;20.10;36.29
42169;BME280;27838;43.858;25.974;2023-05-02T06:43:19;101739.13;;;20.21;36.28
42169;BME280;27838;43.858;25.974;2023-05-02T06:45:45;101726.66;;;20.25;36.20
42169;BME280;27838;43.858;25.974;2023-05-02T06:48:12;101731.63;;;20.38;36.34
42169;BME280;27838;43.858;25.974;2023-05-02T06:50:39;101738.47;;;20.47;36.43
42169;BME280;27838;43.858;25.974;2023-05-02T06:53:05;101735.59;;;20.56;36.17
42169;BME280;27838;43.858;25.974;2023-05-02T06:55:32;101731.94;;;20.64;36.36
42169;BME280;27838;43.858;25.974;2023-05-02T06:57:58;101732.56;;;20.72;36.11
42169;BME280;27838;43.858;25.974;2023-05-02T07:00:25;101741.16;;;20.82;36.53
42169;BME280;27838;43.858;25.974;2023-05-02T07:02:52;101734.81;;;20.87;36.45
42169;BME280;27838;43.858;25.974;2023-05-02T07:05:18;101741.59;;;20.98;36.61
42169;BME280;27838;43.858;25.974;2023-05-02T07:07:45;101745.75;;;21.08;36.72
42169;BME280;27838;43.858;25.974;2023-05-02T07:10:11;101735.81;;;21.16;36.87
42169;BME280;27838;43.858;25.974;2023-05-02T07:12:38;101744.22;;;21.30;36.37
42169;BME280;27838;43.858;25.974;2023-05-02T07:15:05;101732.53;;;21.38;36.50
42169;BME280;27838;43.858;25.974;2023-05-02T07:17:32;101742.84;;;21.48;36.77
42169;BME280;27838;43.858;25.974;2023-05-02T07:19:59;101732.94;;;21.55;36.16
42169;BME280;27838;43.858;25.974;2023-05-02T07:22:25;101738.16;;;21.58;36.02
42169;BME280;27838;43.858;25.974;2023-05-02T07:25:00;101736.50;;;21.54;36.46
42169;BME280;27838;43.858;25.974;2023-05-02T07:27:27;101730.56;;;21.46;36.36
42169;BME280;27838;43.858;25.974;2023-05-02T07:29:54;101730.38;;;21.52;36.55
42169;BME280;27838;43.858;25.974;2023-05-02T07:32:21;101729.56;;;21.50;36.70
42169;BME280;27838;43.858;25.974;2023-05-02T07:34:49;101719.03;;;21.47;36.90
42169;BME280;27838;43.858;25.974;2023-05-02T07:37:18;101711.63;;;21.58;36.88
42169;BME280;27838;43.858;25.974;2023-05-02T07:39:45;101731.66;;;21.68;37.07
42169;BME280;27838;43.858;25.974;2023-05-02T07:42:11;101722.38;;;21.82;36.74
42169;BME280;27838;43.858;25.974;2023-05-02T07:44:38;101725.38;;;21.99;36.54
42169;BME280;27838;43.858;25.974;2023-05-02T07:47:07;101731.06;;;22.15;36.05
42169;BME280;27838;43.858;25.974;2023-05-02T07:49:34;101720.91;;;22.30;33.50
42169;BME280;27838;43.858;25.974;2023-05-02T07:52:01;101722.22;;;22.43;34.05
42169;BME280;27838;43.858;25.974;2023-05-02T07:54:27;101722.31;;;22.40;27.46
42169;BME280;27838;43.858;25.974;2023-05-02T07:56:54;101732.75;;;22.46;29.92
42169;BME280;27838;43.858;25.974;2023-05-02T07:59:22;101729.81;;;22.54;26.39
42169;BME280;27838;43.858;25.974;2023-05-02T08:01:48;101730.53;;;22.59;25.66
42169;BME280;27838;43.858;25.974;2023-05-02T08:04:15;101733.19;;;22.59;24.63
42169;BME280;27838;43.858;25.974;2023-05-02T08:06:43;101729.63;;;22.60;25.54
42169;BME280;27838;43.858;25.974;2023-05-02T08:09:10;101725.78;;;22.69;24.36
42169;BME280;27838;43.858;25.974;2023-05-02T08:11:36;101722.78;;;22.78;24.06
42169;BME280;27838;43.858;25.974;2023-05-02T08:14:03;101723.44;;;22.85;23.78
42169;BME280;27838;43.858;25.974;2023-05-02T08:16:30;101734.69;;;22.93;24.59
42169;BME280;27838;43.858;25.974;2023-05-02T08:18:57;101717.31;;;22.83;23.22
42169;BME280;27838;43.858;25.974;2023-05-02T08:21:23;101720.63;;;22.89;22.59
42169;BME280;27838;43.858;25.974;2023-05-02T08:23:50;101718.03;;;22.88;22.91
42169;BME280;27838;43.858;25.974;2023-05-02T08:26:16;101718.72;;;22.93;23.57
42169;BME280;27838;43.858;25.974;2023-05-02T08:28:45;101735.25;;;23.01;24.23
42169;BME280;27838;43.858;25.974;2023-05-02T08:31:12;101725.75;;;22.94;23.99
42169;BME280;27838;43.858;25.974;2023-05-02T08:33:39;101716.53;;;23.04;23.99
42169;BME280;27838;43.858;25.974;2023-05-02T08:36:13;101722.47;;;23.12;23.71
42169;BME280;27838;43.858;25.974;2023-05-02T08:38:41;101722.44;;;23.14;22.81
42169;BME280;27838;43.858;25.974;2023-05-02T08:41:11;101712.69;;;23.13;23.56
42169;BME280;27838;43.858;25.974;2023-05-02T08:43:38;101715.66;;;23.29;24.32
42169;BME280;27838;43.858;25.974;2023-05-02T08:46:06;101717.16;;;23.36;23.70
42169;BME280;27838;43.858;25.974;2023-05-02T08:48:35;101716.13;;;23.40;23.49
42169;BME280;27838;43.858;25.974;2023-05-02T08:51:03;101710.44;;;23.49;23.41
42169;BME280;27838;43.858;25.974;2023-05-02T08:53:34;101717.19;;;23.58;23.06
42169;BME280;27838;43.858;25.974;2023-05-02T08:56:01;101707.19;;;23.65;23.50
42169;BME280;27838;43.858;25.974;2023-05-02T08:58:28;101723.34;;;23.84;23.23
42169;BME280;27838;43.858;25.974;2023-05-02T09:01:00;101718.50;;;23.93;23.13
42169;BME280;27838;43.858;25.974;2023-05-02T09:03:32;101712.25;;;23.94;22.72
42169;BME280;27838;43.858;25.974;2023-05-02T09:06:10;101706.81;;;23.98;22.44
42169;BME280;27838;43.858;25.974;2023-05-02T09:08:39;101711.06;;;23.78;22.81
42169;BME280;27838;43.858;25.974;2023-05-02T09:11:07;101698.59;;;23.80;22.70
42169;BME280;27838;43.858;25.974;2023-05-02T09:13:38;101706.81;;;23.98;23.44
42169;BME280;27838;43.858;25.974;2023-05-02T09:19:03;101688.41;;;23.91;22.34
42169;BME280;27838;43.858;25.974;2023-05-02T09:21:37;101691.06;;;23.91;22.68
42169;BME280;27838;43.858;25.974;2023-05-02T09:24:34;101689.09;;;23.97;23.17
42169;BME280;27838;43.858;25.974;2023-05-02T09:27:02;101675.19;;;24.10;22.43
42169;BME280;27838;43.858;25.974;2023-05-02T09:29:31;101683.25;;;24.09;22.16
42169;BME280;27838;43.858;25.974;2023-05-02T09:32:03;101693.28;;;24.24;21.96
42169;BME280;27838;43.858;25.974;2023-05-02T09:34:30;101684.03;;;24.33;21.28
42169;BME280;27838;43.858;25.974;2023-05-02T09:36:56;101677.69;;;24.36;21.34
42169;BME280;27838;43.858;25.974;2023-05-02T09:39:27;101676.69;;;24.38;21.40
42169;BME280;27838;43.858;25.974;2023-05-02T09:41:54;101663.25;;;24.41;21.75
42169;BME280;27838;43.858;25.974;2023-05-02T09:44:23;101677.69;;;24.36;21.37
42169;BME280;27838;43.858;25.974;2023-05-02T09:46:54;101680.22;;;24.39;21.76
42169;BME280;27838;43.858;25.974;2023-05-02T09:49:37;101669.31;;;24.45;21.46
42169;BME280;27838;43.858;25.974;2023-05-02T09:52:18;101661.16;;;24.48;21.60
42169;BME280;27838;43.858;25.974;2023-05-02T09:54:46;101674.81;;;24.62;21.66
42169;BME280;27838;43.858;25.974;2023-05-02T09:57:14;101667.84;;;24.79;21.32
42169;BME280;27838;43.858;25.974;2023-05-02T09:59:52;101662.63;;;24.96;20.78
42169;BME280;27838;43.858;25.974;2023-05-02T10:02:20;101662.25;;;25.04;20.78
42169;BME280;27838;43.858;25.974;2023-05-02T10:04:47;101652.47;;;25.04;19.98
42169;BME280;27838;43.858;25.974;2023-05-02T10:07:15;101664.84;;;25.05;19.79
42169;BME280;27838;43.858;25.974;2023-05-02T10:09:43;101660.19;;;25.11;20.55
42169;BME280;27838;43.858;25.974;2023-05-02T10:12:15;101661.19;;;25.08;19.66
42169;BME280;27838;43.858;25.974;2023-05-02T10:14:50;101649.03;;;25.02;19.58
42169;BME280;27838;43.858;25.974;2023-05-02T10:17:27;101648.84;;;25.05;19.51
42169;BME280;27838;43.858;25.974;2023-05-02T10:20:00;101661.41;;;25.22;19.72
42169;BME280;27838;43.858;25.974;2023-05-02T10:22:29;101658.41;;;25.30;19.60
42169;BME280;27838;43.858;25.974;2023-05-02T10:24:57;101643.34;;;25.29;19.18
42169;BME280;27838;43.858;25.974;2023-05-02T10:27:24;101644.84;;;25.35;20.32
42169;BME280;27838;43.858;25.974;2023-05-02T10:29:51;101643.94;;;25.36;19.36
42169;BME280;27838;43.858;25.974;2023-05-02T10:32:20;101648.19;;;25.40;19.72
42169;BME280;27838;43.858;25.974;2023-05-02T10:34:49;101659.56;;;25.43;19.24
42169;BME280;27838;43.858;25.974;2023-05-02T10:37:17;101631.31;;;25.39;19.24
42169;BME280;27838;43.858;25.974;2023-05-02T10:39:44;101652.53;;;25.42;19.26
42169;BME280;27838;43.858;25.974;2023-05-02T10:42:12;101644.34;;;25.46;19.09
42169;BME280;27838;43.858;25.974;2023-05-02T10:44:40;101637.75;;;25.53;18.50
42169;BME280;27838;43.858;25.974;2023-05-02T10:47:20;101635.91;;;25.55;18.99
42169;BME280;27838;43.858;25.974;2023-05-02T10:49:51;101637.75;;;25.53;19.02
42169;BME280;27838;43.858;25.974;2023-05-02T10:52:33;101627.53;;;25.43;18.85
42169;BME280;27838;43.858;25.974;2023-05-02T10:55:18;101629.53;;;25.57;19.29
42169;BME280;27838;43.858;25.974;2023-05-02T11:00:31;101630.69;;;25.71;18.72
42169;BME280;27838;43.858;25.974;2023-05-02T11:02:58;101627.13;;;25.70;18.95
42169;BME280;27838;43.858;25.974;2023-05-02T11:05:26;101644.66;;;25.76;19.03
42169;BME280;27838;43.858;25.974;2023-05-02T11:10:41;101640.09;;;25.97;18.94
42169;BME280;27838;43.858;25.974;2023-05-02T11:13:08;101627.13;;;26.07;19.02
42169;BME280;27838;43.858;25.974;2023-05-02T11:18:08;101628.09;;;26.06;19.61
42169;BME280;27838;43.858;25.974;2023-05-02T11:20:38;101636.31;;;26.18;19.66
42169;BME280;27838;43.858;25.974;2023-05-02T11:31:08;101624.06;;;26.14;19.78
42169;BME280;27838;43.858;25.974;2023-05-02T11:33:35;101603.94;;;25.90;19.40
42169;BME280;27838;43.858;25.974;2023-05-02T11:36:05;101623.13;;;25.98;19.65
42169;BME280;27838;43.858;25.974;2023-05-02T11:38:36;101617.06;;;26.12;18.97
42169;BME280;27838;43.858;25.974;2023-05-02T11:41:03;101588.75;;;25.90;18.29
42169;BME280;27838;43.858;25.974;2023-05-02T11:43:30;101622.34;;;25.96;18.25
42169;BME280;27838;43.858;25.974;2023-05-02T11:45:58;101618.44;;;25.84;17.95
42169;BME280;27838;43.858;25.974;2023-05-02T11:48:26;101615.81;;;25.65;18.01
42169;BME280;27838;43.858;25.974;2023-05-02T11:50:57;101606.25;;;25.78;18.11
42169;BME280;27838;43.858;25.974;2023-05-02T11:53:27;101605.38;;;25.97;18.89
42169;BME280;27838;43.858;25.974;2023-05-02T11:55:57;101598.69;;;26.06;18.46
42169;BME280;27838;43.858;25.974;2023-05-02T11:58:27;101595.47;;;26.16;18.40
42169;BME280;27838;43.858;25.974;2023-05-02T12:00:56;101593.44;;;26.22;18.08
42169;BME280;27838;43.858;25.974;2023-05-02T12:03:27;101593.56;;;26.18;18.08
42169;BME280;27838;43.858;25.974;2023-05-02T12:05:55;101595.38;;;26.18;18.05
42169;BME280;27838;43.858;25.974;2023-05-02T12:08:24;101587.94;;;26.25;17.84
42169;BME280;27838;43.858;25.974;2023-05-02T12:10:55;101587.38;;;26.18;17.69
42169;BME280;27838;43.858;25.974;2023-05-02T12:13:24;101578.97;;;26.08;18.28
42169;BME280;27838;43.858;25.974;2023-05-02T12:15:52;101574.78;;;25.85;18.18
42169;BME280;27838;43.858;25.974;2023-05-02T12:18:21;101584.59;;;25.85;17.79
42169;BME280;27838;43.858;25.974;2023-05-02T12:20:50;101579.47;;;25.80;18.56
42169;BME280;27838;43.858;25.974;2023-05-02T12:23:19;101574.44;;;25.74;18.86
42169;BME280;27838;43.858;25.974;2023-05-02T12:25:49;101576.34;;;25.89;18.81
42169;BME280;27838;43.858;25.974;2023-05-02T12:28:19;101556.63;;;25.92;18.85
42169;BME280;27838;43.858;25.974;2023-05-02T12:30:48;101557.31;;;25.97;19.05
42169;BME280;27838;43.858;25.974;2023-05-02T12:33:16;101561.97;;;25.92;18.90
42169;BME280;27838;43.858;25.974;2023-05-02T12:35:43;101548.94;;;25.86;18.46
42169;BME280;27838;43.858;25.974;2023-05-02T12:38:18;101548.47;;;25.77;19.16
42169;BME280;27838;43.858;25.974;2023-05-02T12:40:53;101559.16;;;25.60;19.70
42169;BME280;27838;43.858;25.974;2023-05-02T12:43:21;101552.91;;;25.59;19.48
42169;BME280;27838;43.858;25.974;2023-05-02T12:45:49;101549.19;;;25.63;19.44
42169;BME280;27838;43.858;25.974;2023-05-02T12:50:45;101540.13;;;25.49;19.81
42169;BME280;27838;43.858;25.974;2023-05-02T12:53:12;101527.34;;;25.55;20.19
42169;BME280;27838;43.858;25.974;2023-05-02T12:55:39;101540.91;;;25.68;20.42
42169;BME280;27838;43.858;25.974;2023-05-02T12:58:07;101518.84;;;25.65;19.59
42169;BME280;27838;43.858;25.974;2023-05-02T13:00:39;101538.16;;;25.70;19.44
42169;BME280;27838;43.858;25.974;2023-05-02T13:03:07;101539.72;;;25.74;19.62
42169;BME280;27838;43.858;25.974;2023-05-02T13:05:35;101532.13;;;25.66;19.33
42169;BME280;27838;43.858;25.974;2023-05-02T13:08:02;101540.47;;;25.60;18.85
42169;BME280;27838;43.858;25.974;2023-05-02T13:10:28;101531.88;;;25.53;18.75
42169;BME280;27838;43.858;25.974;2023-05-02T13:12:55;101521.44;;;25.49;18.56
42169;BME280;27838;43.858;25.974;2023-05-02T13:15:21;101517.91;;;25.48;19.44
42169;BME280;27838;43.858;25.974;2023-05-02T13:17:49;101532.75;;;25.54;19.20
42169;BME280;27838;43.858;25.974;2023-05-02T13:20:16;101522.06;;;25.54;19.54
42169;BME280;27838;43.858;25.974;2023-05-02T13:22:43;101517.91;;;25.48;19.87
42169;BME280;27838;43.858;25.974;2023-05-02T13:25:09;101517.28;;;25.43;19.62
42169;BME280;27838;43.858;25.974;2023-05-02T13:27:36;101516.72;;;25.36;19.77
42169;BME280;27838;43.858;25.974;2023-05-02T13:30:03;101515.59;;;25.40;19.75
42169;BME280;27838;43.858;25.974;2023-05-02T13:32:29;101510.94;;;25.27;19.87
42169;BME280;27838;43.858;25.974;2023-05-02T13:34:56;101514.69;;;25.22;20.16
42169;BME280;27838;43.858;25.974;2023-05-02T13:37:22;101518.94;;;25.27;20.76
42169;BME280;27838;43.858;25.974;2023-05-02T13:39:50;101517.50;;;25.19;20.52
42169;BME280;27838;43.858;25.974;2023-05-02T13:42:17;101506.44;;;25.29;20.59
42169;BME280;27838;43.858;25.974;2023-05-02T13:44:43;101511.84;;;25.27;20.58
42169;BME280;27838;43.858;25.974;2023-05-02T13:47:10;101507.78;;;25.18;20.94
42169;BME280;27838;43.858;25.974;2023-05-02T13:49:36;101489.81;;;25.22;20.82
42169;BME280;27838;43.858;25.974;2023-05-02T13:52:03;101487.41;;;24.98;20.34
42169;BME280;27838;43.858;25.974;2023-05-02T13:54:29;101496.50;;;24.94;20.60